createdAt,value
2024-05-09T00:02:57.292Z,6.30
2024-05-09T00:06:01.315Z,6.07
2024-05-09T00:09:05.529Z,6.68
2024-05-09T00:12:09.920Z,6.63
2024-05-09T00:15:13.728Z,6.63
2024-05-09T00:18:18.187Z,5.80
2024-05-09T00:21:21.965Z,5.47
2024-05-09T00:24:26.363Z,5.65
2024-05-09T00:27:30.124Z,5.07
2024-05-09T00:30:36.283Z,5.90
2024-05-09T00:33:41.985Z,5.70
2024-05-09T00:36:45.720Z,5.15
2024-05-09T00:39:49.830Z,4.32
2024-05-09T00:42:53.715Z,5.93
2024-05-09T00:45:58.584Z,3.47
2024-05-09T00:49:02.721Z,2.83
2024-05-09T00:52:08.477Z,2.88
2024-05-09T00:55:12.933Z,3.60
2024-05-09T00:58:21.658Z,3.80
2024-05-09T01:01:26.743Z,4.40
2024-05-09T01:04:31.405Z,3.70
2024-05-09T01:07:34.844Z,3.05
2024-05-09T01:10:41.747Z,3.95
2024-05-09T01:13:47.593Z,3.17
2024-05-09T01:16:52.852Z,3.67
2024-05-09T01:19:56.739Z,3.55
2024-05-09T01:23:02.275Z,4.60
2024-05-09T01:26:06.565Z,6.75
2024-05-09T01:29:10.491Z,4.68
2024-05-09T01:32:14.519Z,4.67
2024-05-09T01:35:24.142Z,5.90
2024-05-09T01:38:27.343Z,5.25
2024-05-09T01:41:31.718Z,5.30
2024-05-09T01:44:35.683Z,4.80
2024-05-09T01:47:40.084Z,4.30
2024-05-09T01:50:44.078Z,4.70
2024-05-09T01:53:47.678Z,4.65
2024-05-09T01:56:51.443Z,4.40
2024-05-09T01:59:55.961Z,4.57
2024-05-09T02:03:00.071Z,4.23
2024-05-09T02:06:04.671Z,5.00
2024-05-09T02:09:12.400Z,5.45
2024-05-09T02:12:16.645Z,5.80
2024-05-09T02:15:20.480Z,5.32
2024-05-09T02:18:24.815Z,5.97
2024-05-09T02:21:27.985Z,4.78
2024-05-09T02:24:32.037Z,4.53
2024-05-09T02:27:35.676Z,5.45
2024-05-09T02:30:42.208Z,5.00
2024-05-09T02:33:47.412Z,4.40
2024-05-09T02:36:51.122Z,4.07
2024-05-09T02:39:54.899Z,3.88
2024-05-09T02:42:59.258Z,4.47
2024-05-09T02:46:03.205Z,4.47
2024-05-09T02:49:07.667Z,3.53
2024-05-09T02:52:11.579Z,2.45
2024-05-09T02:55:15.704Z,2.28
2024-05-09T02:58:19.438Z,2.90
2024-05-09T03:01:23.704Z,2.53
2024-05-09T03:04:27.631Z,2.67
2024-05-09T03:07:31.570Z,2.90
2024-05-09T03:10:38.113Z,2.95
2024-05-09T03:13:43.594Z,3.55
2024-05-09T03:16:47.467Z,3.33
2024-05-09T03:19:51.255Z,3.13
2024-05-09T03:22:56.748Z,3.17
2024-05-09T03:26:01.236Z,3.33
2024-05-09T03:29:05.233Z,3.20
2024-05-09T03:32:08.941Z,2.83
2024-05-09T03:35:12.141Z,2.97
2024-05-09T03:38:15.755Z,3.25
2024-05-09T03:41:22.653Z,2.97
2024-05-09T03:44:26.985Z,2.05
2024-05-09T03:47:30.312Z,2.25
2024-05-09T03:50:36.105Z,2.00
2024-05-09T03:53:40.368Z,2.05
2024-05-09T03:56:44.230Z,2.13
2024-05-09T03:59:47.604Z,2.28
2024-05-09T04:02:51.101Z,2.05
2024-05-09T04:05:54.851Z,1.80
2024-05-09T04:08:58.625Z,2.10
2024-05-09T04:12:04.465Z,2.10
2024-05-09T04:15:11.181Z,1.80
2024-05-09T04:18:19.593Z,1.73
2024-05-09T04:21:23.396Z,2.00
2024-05-09T04:24:26.725Z,2.05
2024-05-09T04:27:30.498Z,2.50
2024-05-09T04:30:38.769Z,2.50
2024-05-09T04:33:44.320Z,2.65
2024-05-09T04:36:47.956Z,2.80
2024-05-09T04:39:50.996Z,1.98
2024-05-09T04:42:54.141Z,1.55
2024-05-09T04:45:57.886Z,1.50
2024-05-09T04:49:01.507Z,1.52
2024-05-09T04:52:04.749Z,0.90
2024-05-09T04:55:08.497Z,1.20
2024-05-09T04:58:12.479Z,1.10
2024-05-09T05:01:18.892Z,1.40
2024-05-09T05:04:22.748Z,1.60
2024-05-09T05:07:26.873Z,1.87
2024-05-09T05:10:35.879Z,2.25
2024-05-09T05:13:41.831Z,1.30
2024-05-09T05:16:44.917Z,1.20
2024-05-09T05:19:50.057Z,1.30
2024-05-09T05:22:53.682Z,1.30
2024-05-09T05:25:57.605Z,1.60
2024-05-09T05:29:01.580Z,1.85
2024-05-09T05:32:05.399Z,1.55
2024-05-09T05:35:08.644Z,2.67
2024-05-09T05:38:13.002Z,1.90
2024-05-09T05:41:16.914Z,1.40
2024-05-09T05:44:21.463Z,2.03
2024-05-09T05:47:25.555Z,2.50
2024-05-09T05:50:35.536Z,1.27
2024-05-09T05:53:41.253Z,1.37
2024-05-09T05:56:45.022Z,1.42
2024-05-09T05:59:48.118Z,1.50
2024-05-09T06:02:51.398Z,1.42
2024-05-09T06:05:55.448Z,1.85
2024-05-09T06:08:59.790Z,1.77
2024-05-09T06:12:04.399Z,1.60
2024-05-09T06:15:08.967Z,1.98
2024-05-09T06:18:14.770Z,1.45
2024-05-09T06:21:19.560Z,2.47
2024-05-09T06:24:22.855Z,1.63
2024-05-09T06:27:26.610Z,2.00
2024-05-09T06:30:37.127Z,2.47
2024-05-09T06:33:43.643Z,2.63
2024-05-09T06:36:48.079Z,4.03
2024-05-09T06:39:52.495Z,2.90
2024-05-09T06:42:58.285Z,2.60
2024-05-09T06:46:02.307Z,3.08
2024-05-09T06:49:09.214Z,2.55
2024-05-09T06:52:13.573Z,2.70
2024-05-09T06:55:17.364Z,2.60
2024-05-09T06:58:21.630Z,2.85
2024-05-09T07:01:26.289Z,2.85
2024-05-09T07:04:31.720Z,3.15
2024-05-09T07:07:35.615Z,3.80
2024-05-09T07:10:39.368Z,3.47
2024-05-09T07:13:42.450Z,3.15
2024-05-09T07:20:19.869Z,3.10
2024-05-09T07:23:30.753Z,3.72
2024-05-09T07:26:34.638Z,3.67
2024-05-09T07:29:39.146Z,3.53
2024-05-09T07:32:45.615Z,4.55
2024-05-09T07:35:49.573Z,3.65
2024-05-09T07:38:53.440Z,3.00
2024-05-09T07:41:57.813Z,3.00
2024-05-09T07:45:20.965Z,2.90
2024-05-09T07:53:08.829Z,3.70
2024-05-09T07:58:27.918Z,3.20
2024-05-09T08:01:31.951Z,3.58
2024-05-09T08:04:35.864Z,3.03
2024-05-09T08:07:40.037Z,3.85
2024-05-09T08:10:43.309Z,3.88
2024-05-09T08:13:46.766Z,3.70
2024-05-09T08:16:50.261Z,3.80
2024-05-09T08:19:53.946Z,3.65
2024-05-09T08:22:57.330Z,3.25
2024-05-09T08:26:01.465Z,4.35
2024-05-09T08:29:05.130Z,4.00
2024-05-09T08:32:13.003Z,3.60
2024-05-09T08:35:16.640Z,3.85
2024-05-09T08:38:20.737Z,4.72
2024-05-09T08:41:24.318Z,4.63
2024-05-09T08:44:28.305Z,4.00
2024-05-09T08:47:33.560Z,5.22
2024-05-09T08:50:40.738Z,5.22
2024-05-09T08:53:44.828Z,3.05
2024-05-09T08:56:50.120Z,3.75
2024-05-09T08:59:53.640Z,4.40
2024-05-09T09:02:59.378Z,5.88
2024-05-09T09:06:07.347Z,4.07
2024-05-09T09:09:11.813Z,2.70
2024-05-09T09:12:15.740Z,2.63
2024-05-09T09:15:19.292Z,2.40
2024-05-09T09:18:24.217Z,1.88
2024-05-09T09:21:28.660Z,1.75
2024-05-09T09:24:32.523Z,1.75
2024-05-09T09:27:36.095Z,1.58
2024-05-09T09:30:43.049Z,1.53
2024-05-09T09:33:47.466Z,1.30
2024-05-09T09:36:52.385Z,1.98
2024-05-09T09:39:56.798Z,1.67
2024-05-09T09:43:02.185Z,1.48
2024-05-09T09:46:09.720Z,1.17
2024-05-09T09:49:16.090Z,2.05
2024-05-09T09:52:19.665Z,1.60
2024-05-09T09:55:25.460Z,1.50
2024-05-09T09:58:30.733Z,1.60
2024-05-09T10:01:35.871Z,1.93
2024-05-09T10:04:39.934Z,1.48
2024-05-09T10:07:44.528Z,1.48
2024-05-09T10:10:48.468Z,1.50
2024-05-09T10:13:54.367Z,1.83
2024-05-09T10:17:07.090Z,1.70
2024-05-09T10:20:18.348Z,1.70
2024-05-09T10:23:30.342Z,1.63
2024-05-09T10:26:38.353Z,1.17
2024-05-09T10:29:53.355Z,2.40
2024-05-09T10:32:57.849Z,4.17
2024-05-09T10:36:04.645Z,1.60
2024-05-09T10:39:10.211Z,1.35
2024-05-09T10:42:13.451Z,1.33
2024-05-09T10:45:17.967Z,1.30
2024-05-09T10:48:21.958Z,1.43
2024-05-09T10:51:25.887Z,2.03
2024-05-09T10:54:37.497Z,1.88
2024-05-09T10:57:41.627Z,1.73
2024-05-09T11:00:45.790Z,2.00
2024-05-09T11:03:49.973Z,1.80
2024-05-09T11:06:53.776Z,1.30
2024-05-09T11:09:57.404Z,1.88
2024-05-09T11:13:01.070Z,2.72
2024-05-09T11:16:07.070Z,1.83
2024-05-09T11:19:14.719Z,1.97
2024-05-09T11:22:18.979Z,2.00
2024-05-09T11:25:22.961Z,2.30
2024-05-09T11:28:29.112Z,2.60
2024-05-09T11:31:32.434Z,2.60
2024-05-09T11:34:35.874Z,3.80
2024-05-09T11:37:41.868Z,3.60
2024-05-09T11:40:45.113Z,3.22
2024-05-09T11:43:48.900Z,3.85
2024-05-09T11:46:53.044Z,4.07
2024-05-09T11:49:59.737Z,4.27
2024-05-09T11:53:03.208Z,4.13
2024-05-09T11:56:06.789Z,3.78
2024-05-09T11:59:11.410Z,3.10
2024-05-09T12:02:14.664Z,12.97
2024-05-09T12:05:18.124Z,26.93
2024-05-09T12:08:22.050Z,24.75
2024-05-09T12:11:26.370Z,17.52
2024-05-09T12:14:29.506Z,15.38
2024-05-09T12:17:32.987Z,14.87
2024-05-09T12:20:39.084Z,16.87
2024-05-09T12:23:44.463Z,13.10
2024-05-09T12:26:48.534Z,11.27
2024-05-09T12:29:52.816Z,9.25
2024-05-09T12:32:55.896Z,10.17
2024-05-09T12:36:00.328Z,7.83
2024-05-09T12:39:06.943Z,7.18
2024-05-09T12:42:14.590Z,10.10
2024-05-09T12:45:22.296Z,10.85
2024-05-09T12:48:26.688Z,11.00
2024-05-09T12:51:31.660Z,11.60
2024-05-09T12:54:35.478Z,15.77
2024-05-09T12:57:38.746Z,17.20
2024-05-09T13:00:42.620Z,16.90
2024-05-09T13:03:46.724Z,18.37
2024-05-09T13:06:51.142Z,19.20
2024-05-09T13:09:55.344Z,19.98
2024-05-09T13:12:59.314Z,20.23
2024-05-09T13:16:02.533Z,17.98
2024-05-09T13:19:06.097Z,15.43
2024-05-09T13:22:10.194Z,14.90
2024-05-09T13:25:14.797Z,15.05
2024-05-09T13:28:18.116Z,14.57
2024-05-09T13:31:22.718Z,12.27
2024-05-09T13:34:25.869Z,14.03
2024-05-09T13:37:29.245Z,13.07
2024-05-09T13:40:35.051Z,13.07
2024-05-09T13:43:40.126Z,13.73
2024-05-09T13:46:44.064Z,12.10
2024-05-09T13:49:48.840Z,13.07
2024-05-09T13:52:52.137Z,13.57
2024-05-09T13:55:56.391Z,11.18
2024-05-09T13:58:59.994Z,10.32
2024-05-09T14:02:04.491Z,9.95
2024-05-09T14:05:08.532Z,8.87
2024-05-09T14:08:12.896Z,10.73
2024-05-09T14:11:16.805Z,11.13
2024-05-09T14:14:20.798Z,10.82
2024-05-09T14:17:24.620Z,9.88
2024-05-09T14:20:31.691Z,10.37
2024-05-09T14:23:35.664Z,9.20
2024-05-09T14:26:39.506Z,10.68
2024-05-09T14:29:43.389Z,12.57
2024-05-09T14:32:47.794Z,6.50
2024-05-09T14:35:51.576Z,5.60
2024-05-09T14:38:55.018Z,7.63
2024-05-09T14:41:58.066Z,5.07
2024-05-09T14:45:02.793Z,4.50
2024-05-09T14:48:07.550Z,2.90
2024-05-09T14:51:12.260Z,5.67
2024-05-09T14:54:17.350Z,4.40
2024-05-09T14:57:21.368Z,3.00
2024-05-09T15:00:29.112Z,2.90
2024-05-09T15:03:37.412Z,2.50
2024-05-09T15:06:42.094Z,2.50
2024-05-09T15:09:47.655Z,1.30
2024-05-09T15:12:50.870Z,1.42
2024-05-09T15:15:55.292Z,1.60
2024-05-09T15:19:00.353Z,1.40
2024-05-09T15:22:03.581Z,1.50
2024-05-09T15:25:08.370Z,1.40
2024-05-09T15:28:12.554Z,1.70
2024-05-09T15:31:16.023Z,2.15
2024-05-09T15:34:19.750Z,2.33
2024-05-09T15:37:24.406Z,2.40
2024-05-09T15:40:37.489Z,2.00
2024-05-09T15:43:44.446Z,2.10
2024-05-09T15:46:48.005Z,1.83
2024-05-09T15:49:51.560Z,2.35
2024-05-09T15:52:54.951Z,2.03
2024-05-09T15:55:59.258Z,2.57
2024-05-09T15:59:02.935Z,2.13
2024-05-09T16:02:07.482Z,1.83
2024-05-09T16:05:11.506Z,2.30
2024-05-09T16:08:16.156Z,2.10
2024-05-09T16:11:21.449Z,1.97
2024-05-09T16:14:24.596Z,2.20
2024-05-09T16:17:28.006Z,2.15
2024-05-09T16:20:38.908Z,2.20
2024-05-09T16:23:45.323Z,1.80
2024-05-09T16:26:49.561Z,2.03
2024-05-09T16:29:52.681Z,2.00
2024-05-09T16:32:57.038Z,1.90
2024-05-09T16:36:01.376Z,2.20
2024-05-09T16:39:05.575Z,1.80
2024-05-09T16:42:08.651Z,1.93
2024-05-09T16:45:13.040Z,1.63
2024-05-09T16:48:17.476Z,1.88
2024-05-09T16:51:21.681Z,1.75
2024-05-09T16:54:25.107Z,1.73
2024-05-09T16:57:29.234Z,1.40
2024-05-09T17:00:40.436Z,2.00
2024-05-09T17:03:47.495Z,1.92
2024-05-09T17:06:50.741Z,1.85
2024-05-09T17:09:54.246Z,1.97
2024-05-09T17:12:57.943Z,1.90
2024-05-09T17:16:01.691Z,1.58
2024-05-09T17:19:05.337Z,1.52
2024-05-09T17:22:09.949Z,1.42
2024-05-09T17:25:14.008Z,1.70
2024-05-09T17:28:18.503Z,1.63
2024-05-09T17:31:21.816Z,1.40
2024-05-09T17:34:26.693Z,1.50
2024-05-09T17:37:31.802Z,1.40
2024-05-09T17:40:38.064Z,1.50
2024-05-09T17:43:42.945Z,1.70
2024-05-09T17:46:47.212Z,1.40
2024-05-09T17:49:51.011Z,1.58
2024-05-09T17:52:55.027Z,1.40
2024-05-09T17:55:59.780Z,1.30
2024-05-09T17:59:02.811Z,1.47
2024-05-09T18:02:06.457Z,1.50
2024-05-09T18:05:10.057Z,1.50
2024-05-09T18:08:14.158Z,1.20
2024-05-09T18:11:18.571Z,1.20
2024-05-09T18:14:22.837Z,1.53
2024-05-09T18:17:27.003Z,1.30
2024-05-09T18:20:40.313Z,1.17
2024-05-09T18:23:47.742Z,1.10
2024-05-09T18:26:51.706Z,1.00
2024-05-09T18:29:55.498Z,0.70
2024-05-09T18:32:58.706Z,0.82
2024-05-09T18:36:03.137Z,0.63
2024-05-09T18:39:07.563Z,0.60
2024-05-09T18:42:11.588Z,0.60
2024-05-09T18:45:15.530Z,0.73
2024-05-09T18:48:19.620Z,0.45
2024-05-09T18:51:23.144Z,0.50
2024-05-09T18:54:27.227Z,0.50
2024-05-09T18:57:31.043Z,7.30
2024-05-09T19:00:37.935Z,0.40
2024-05-09T19:03:44.058Z,0.30
2024-05-09T19:06:48.375Z,0.28
2024-05-09T19:09:52.229Z,0.40
2024-05-09T19:12:56.547Z,0.23
2024-05-09T19:15:59.687Z,0.40
2024-05-09T19:19:05.703Z,0.20
2024-05-09T19:22:09.318Z,0.20
2024-05-09T19:25:13.340Z,0.30
2024-05-09T19:28:16.834Z,0.10
2024-05-09T19:31:20.462Z,0.20
2024-05-09T19:34:24.783Z,0.20
2024-05-09T19:37:32.320Z,0.20
2024-05-09T19:40:36.306Z,0.20
2024-05-09T19:43:40.143Z,0.20
2024-05-09T19:46:43.350Z,0.20
2024-05-09T19:49:46.794Z,0.20
2024-05-09T19:52:50.710Z,0.20
2024-05-09T19:55:55.054Z,0.15
2024-05-09T19:58:58.930Z,0.20
2024-05-09T20:02:02.304Z,0.33
2024-05-09T20:05:06.313Z,0.28
2024-05-09T20:08:10.095Z,0.50
2024-05-09T20:11:15.564Z,0.20
2024-05-09T20:14:18.870Z,0.30
2024-05-09T20:17:21.915Z,0.20
2024-05-09T20:20:33.660Z,0.30
2024-05-09T20:23:41.376Z,0.40
2024-05-09T20:26:44.831Z,0.20
2024-05-09T20:29:47.862Z,0.30
2024-05-09T20:32:51.309Z,0.40
2024-05-09T20:35:56.562Z,0.28
2024-05-09T20:39:01.167Z,0.15
2024-05-09T20:42:05.838Z,0.35
2024-05-09T20:45:10.017Z,0.20
2024-05-09T20:48:13.515Z,0.30
2024-05-09T20:51:17.107Z,0.20
2024-05-09T20:54:20.254Z,0.30
2024-05-09T20:57:24.348Z,0.20
2024-05-09T21:00:35.420Z,0.20
2024-05-09T21:03:44.854Z,0.37
2024-05-09T21:06:49.084Z,0.25
2024-05-09T21:09:53.144Z,0.50
2024-05-09T21:12:56.561Z,0.80
2024-05-09T21:16:00.331Z,0.60
2024-05-09T21:19:04.228Z,0.40
2024-05-09T21:22:09.037Z,0.45
2024-05-09T21:25:13.109Z,0.80
2024-05-09T21:28:16.939Z,0.50
2024-05-09T21:31:20.753Z,1.10
2024-05-09T21:34:24.487Z,1.40
2024-05-09T21:37:27.682Z,1.15
2024-05-09T21:40:34.534Z,0.98
2024-05-09T21:43:39.522Z,0.40
2024-05-09T21:46:42.787Z,0.20
2024-05-09T21:49:46.533Z,0.47
2024-05-09T21:52:50.588Z,0.40
2024-05-09T21:55:54.504Z,0.50
2024-05-09T21:58:58.683Z,0.50
2024-05-09T22:02:02.070Z,0.60
2024-05-09T22:05:05.929Z,0.60
2024-05-09T22:08:09.455Z,0.70
2024-05-09T22:11:12.732Z,0.60
2024-05-09T22:14:15.900Z,0.85
2024-05-09T22:17:19.801Z,0.77
2024-05-09T22:20:32.828Z,0.70
2024-05-09T22:23:40.075Z,0.63
2024-05-09T22:26:43.581Z,0.35
2024-05-09T22:29:47.370Z,0.68
2024-05-09T22:32:51.712Z,1.20
2024-05-09T22:35:55.662Z,0.70
2024-05-09T22:38:59.699Z,1.05
2024-05-09T22:42:02.803Z,1.13
2024-05-09T22:45:06.744Z,0.98
2024-05-09T22:48:10.776Z,1.00
2024-05-09T22:51:13.855Z,1.10
2024-05-09T22:54:17.624Z,1.10
2024-05-09T22:57:21.763Z,1.30
2024-05-09T23:00:31.154Z,1.40
2024-05-09T23:03:40.130Z,1.37
2024-05-09T23:06:43.380Z,1.20
2024-05-09T23:09:47.741Z,1.70
2024-05-09T23:12:50.865Z,1.75
2024-05-09T23:15:55.177Z,4.15
2024-05-09T23:18:59.226Z,2.70
2024-05-09T23:22:03.581Z,3.57
2024-05-09T23:25:07.112Z,3.58
2024-05-09T23:28:11.235Z,2.67
2024-05-09T23:31:14.501Z,3.50
2024-05-09T23:34:18.298Z,2.90
2024-05-09T23:37:22.468Z,2.80
2024-05-09T23:40:37.050Z,2.17
2024-05-09T23:43:43.652Z,2.33
2024-05-09T23:46:47.920Z,2.45
2024-05-09T23:49:50.970Z,2.10
2024-05-09T23:52:53.999Z,2.00
2024-05-09T23:55:57.073Z,1.98
2024-05-09T23:59:01.240Z,2.38
